createdAt,value
2023-03-21T00:01:52.949Z,36.70
2023-03-21T00:04:24.932Z,35.33
2023-03-21T00:06:54.632Z,37.00
2023-03-21T00:09:24.327Z,43.35
2023-03-21T00:11:53.076Z,43.92
2023-03-21T00:14:23.684Z,42.55
2023-03-21T00:16:53.585Z,44.28
2023-03-21T00:19:26.375Z,42.85
2023-03-21T00:22:07.104Z,47.08
2023-03-21T00:24:38.014Z,47.17
2023-03-21T00:27:43.082Z,48.30
2023-03-21T00:29:57.689Z,44.40
2023-03-21T00:32:27.333Z,46.65
2023-03-21T00:35:21.435Z,49.35
2023-03-21T00:37:46.925Z,51.53
2023-03-21T00:40:25.707Z,49.03
2023-03-21T00:42:56.571Z,48.55
2023-03-21T00:45:25.657Z,47.20
2023-03-21T00:47:55.836Z,46.65
2023-03-21T00:50:26.925Z,45.67
2023-03-21T00:52:57.153Z,43.42
2023-03-21T00:55:27.358Z,41.55
2023-03-21T00:58:02.048Z,37.95
2023-03-21T01:00:33.884Z,33.97
2023-03-21T01:03:21.321Z,34.92
2023-03-21T01:06:05.599Z,35.45
2023-03-21T01:08:52.382Z,35.08
2023-03-21T01:11:24.982Z,35.35
2023-03-21T01:14:07.177Z,33.25
2023-03-21T01:16:44.474Z,34.83
2023-03-21T01:19:25.458Z,35.42
2023-03-21T01:21:58.573Z,40.67
2023-03-21T01:24:27.435Z,40.88
2023-03-21T01:26:56.508Z,39.40
2023-03-21T01:29:25.285Z,39.30
2023-03-21T01:31:55.845Z,34.42
2023-03-21T01:34:24.816Z,36.13
2023-03-21T01:36:53.983Z,36.92
2023-03-21T01:39:24.698Z,31.77
2023-03-21T01:41:53.758Z,29.20
2023-03-21T01:44:31.696Z,24.60
2023-03-21T01:47:11.068Z,24.38
2023-03-21T01:50:04.949Z,25.02
2023-03-21T01:52:55.145Z,23.92
2023-03-21T01:55:32.406Z,27.27
2023-03-21T01:58:18.239Z,25.40
2023-03-21T02:01:04.921Z,23.35
2023-03-21T02:03:51.506Z,24.73
2023-03-21T02:06:52.149Z,27.60
2023-03-21T02:09:50.313Z,24.65
2023-03-21T02:12:24.374Z,29.17
2023-03-21T02:14:55.639Z,32.10
2023-03-21T02:17:42.044Z,34.47
2023-03-21T02:21:02.224Z,29.63
2023-03-21T02:24:21.405Z,32.78
2023-03-21T02:27:07.244Z,30.65
2023-03-21T02:30:39.945Z,33.17
2023-03-21T02:33:53.798Z,29.17
2023-03-21T02:36:36.398Z,40.05
2023-03-21T02:39:15.807Z,39.80
2023-03-21T02:41:54.484Z,39.25
2023-03-21T02:44:45.315Z,37.38
2023-03-21T02:47:23.538Z,38.28
2023-03-21T02:49:59.465Z,38.67
2023-03-21T02:52:39.230Z,42.60
2023-03-21T02:55:19.068Z,40.10
2023-03-21T02:58:12.861Z,35.70
2023-03-21T03:00:50.508Z,31.33
2023-03-21T03:03:34.802Z,28.48
2023-03-21T03:06:19.206Z,29.98
2023-03-21T03:09:08.735Z,29.48
2023-03-21T03:11:44.126Z,29.38
2023-03-21T03:15:01.878Z,26.38
2023-03-21T03:17:52.021Z,27.42
2023-03-21T03:20:36.738Z,25.88
2023-03-21T03:23:20.775Z,25.98
2023-03-21T03:25:57.550Z,26.83
2023-03-21T03:28:34.349Z,26.33
2023-03-21T03:31:09.576Z,25.30
2023-03-21T03:33:55.668Z,25.10
2023-03-21T03:36:33.150Z,25.20
2023-03-21T03:39:16.700Z,27.70
2023-03-21T03:42:10.154Z,27.48
2023-03-21T03:44:47.786Z,26.27
2023-03-21T03:47:32.949Z,25.27
2023-03-21T03:50:17.580Z,23.65
2023-03-21T03:52:56.937Z,23.55
2023-03-21T03:55:34.703Z,22.13
2023-03-21T03:58:21.780Z,22.05
2023-03-21T04:00:57.119Z,23.27
2023-03-21T04:03:27.230Z,22.73
2023-03-21T04:05:56.847Z,23.42
2023-03-21T04:08:25.611Z,24.50
2023-03-21T04:10:58.675Z,23.27
2023-03-21T04:13:27.524Z,20.73
2023-03-21T04:16:07.719Z,22.95
2023-03-21T04:18:38.436Z,22.80
2023-03-21T04:21:13.875Z,20.00
2023-03-21T04:23:43.578Z,22.35
2023-03-21T04:26:12.839Z,22.45
2023-03-21T04:28:49.233Z,21.25
2023-03-21T04:31:54.687Z,20.23
2023-03-21T04:34:28.200Z,22.73
2023-03-21T04:37:00.536Z,22.20
2023-03-21T04:39:29.326Z,21.30
2023-03-21T04:41:58.417Z,21.67
2023-03-21T04:44:27.402Z,22.58
2023-03-21T04:46:57.968Z,25.20
2023-03-21T04:49:27.540Z,23.67
2023-03-21T04:51:56.616Z,25.80
2023-03-21T04:54:25.548Z,21.83
2023-03-21T04:56:55.266Z,21.70
2023-03-21T04:59:29.232Z,24.20
2023-03-21T05:01:59.927Z,22.02
2023-03-21T05:04:29.439Z,23.25
2023-03-21T05:06:59.195Z,25.35
2023-03-21T05:09:28.346Z,23.00
2023-03-21T05:11:57.816Z,24.92
2023-03-21T05:14:28.489Z,24.20
2023-03-21T05:17:05.202Z,25.77
2023-03-21T05:19:40.802Z,25.40
2023-03-21T05:22:14.302Z,26.50
2023-03-21T05:24:43.790Z,24.13
2023-03-21T05:27:34.156Z,24.95
2023-03-21T05:30:08.504Z,24.70
2023-03-21T05:32:39.744Z,23.10
2023-03-21T05:35:12.244Z,25.30
2023-03-21T05:37:42.479Z,24.25
2023-03-21T05:40:12.936Z,22.50
2023-03-21T05:42:47.123Z,21.90
2023-03-21T05:45:23.159Z,21.73
2023-03-21T05:47:54.938Z,19.25
2023-03-21T05:50:28.216Z,19.65
2023-03-21T05:53:10.051Z,23.92
2023-03-21T05:55:39.669Z,21.13
2023-03-21T05:58:13.824Z,22.95
2023-03-21T06:00:47.072Z,20.17
2023-03-21T06:03:27.137Z,20.88
2023-03-21T06:06:16.188Z,20.55
2023-03-21T06:08:56.885Z,20.90
2023-03-21T06:11:31.936Z,21.88
2023-03-21T06:14:22.488Z,20.10
2023-03-21T06:17:08.691Z,20.05
2023-03-21T06:19:45.543Z,20.77
2023-03-21T06:22:20.572Z,18.38
2023-03-21T06:24:49.784Z,19.70
2023-03-21T06:27:20.542Z,21.58
2023-03-21T06:29:58.043Z,19.30
2023-03-21T06:32:28.861Z,21.27
2023-03-21T06:35:04.725Z,21.85
2023-03-21T06:37:33.838Z,19.92
2023-03-21T06:40:05.853Z,18.65
2023-03-21T06:42:34.709Z,18.90
2023-03-21T06:45:11.595Z,16.80
2023-03-21T06:47:40.869Z,20.40
2023-03-21T06:50:19.131Z,18.80
2023-03-21T06:52:48.247Z,20.13
2023-03-21T06:55:19.389Z,18.02
2023-03-21T06:57:49.045Z,19.58
2023-03-21T07:00:20.039Z,18.58
2023-03-21T07:02:51.310Z,20.67
2023-03-21T07:05:23.733Z,18.30
2023-03-21T07:07:52.570Z,16.17
2023-03-21T07:10:21.998Z,17.77
2023-03-21T07:13:03.612Z,17.35
2023-03-21T07:15:59.073Z,16.38
2023-03-21T07:18:28.266Z,17.77
2023-03-21T07:20:59.336Z,17.98
2023-03-21T07:23:29.143Z,16.40
2023-03-21T07:25:58.566Z,16.15
2023-03-21T07:28:28.628Z,16.50
2023-03-21T07:31:02.676Z,17.13
2023-03-21T07:33:32.709Z,15.98
2023-03-21T07:36:10.856Z,15.77
2023-03-21T07:38:41.208Z,13.88
2023-03-21T07:41:11.084Z,15.70
2023-03-21T07:43:40.925Z,16.48
2023-03-21T07:46:13.002Z,13.63
2023-03-21T07:48:42.063Z,14.85
2023-03-21T07:51:12.812Z,16.38
2023-03-21T07:53:43.856Z,13.18
2023-03-21T07:56:13.021Z,13.95
2023-03-21T07:58:42.003Z,14.15
2023-03-21T08:01:11.117Z,13.10
2023-03-21T08:03:39.986Z,12.30
2023-03-21T08:06:10.808Z,12.50
2023-03-21T08:08:41.204Z,11.52
2023-03-21T08:11:12.416Z,12.07
2023-03-21T08:13:41.782Z,12.15
2023-03-21T08:16:11.299Z,13.70
2023-03-21T08:18:40.384Z,14.48
2023-03-21T08:21:10.004Z,12.10
2023-03-21T08:23:40.288Z,12.55
2023-03-21T08:26:10.439Z,10.02
2023-03-21T08:28:41.623Z,11.68
2023-03-21T08:31:12.994Z,11.20
2023-03-21T08:33:42.194Z,10.68
2023-03-21T08:36:12.445Z,10.75
2023-03-21T08:38:46.132Z,9.60
2023-03-21T08:41:15.373Z,10.50
2023-03-21T08:43:44.681Z,12.20
2023-03-21T08:46:13.995Z,12.20
2023-03-21T08:48:42.878Z,9.55
2023-03-21T08:51:11.953Z,9.48
2023-03-21T08:53:41.592Z,12.65
2023-03-21T08:56:12.686Z,9.95
2023-03-21T08:58:41.578Z,9.65
2023-03-21T09:01:11.472Z,11.27
2023-03-21T09:03:40.459Z,13.40
2023-03-21T09:06:13.541Z,12.55
2023-03-21T09:08:43.465Z,10.20
2023-03-21T09:11:14.131Z,9.82
2023-03-21T09:13:42.899Z,10.43
2023-03-21T09:16:12.281Z,10.27
2023-03-21T09:18:55.593Z,9.65
2023-03-21T09:21:25.246Z,9.57
2023-03-21T09:23:56.311Z,8.35
2023-03-21T09:26:28.818Z,9.90
2023-03-21T09:28:58.866Z,10.30
2023-03-21T09:31:29.193Z,8.77
2023-03-21T09:33:58.540Z,9.82
2023-03-21T09:36:28.188Z,9.13
2023-03-21T09:38:58.101Z,8.90
2023-03-21T09:42:00.866Z,8.98
2023-03-21T09:44:50.158Z,9.20
2023-03-21T09:47:25.325Z,9.55
2023-03-21T09:50:13.523Z,9.10
2023-03-21T09:52:49.804Z,7.47
2023-03-21T09:55:22.500Z,8.05
2023-03-21T09:58:07.845Z,10.18
2023-03-21T10:00:42.167Z,9.25
2023-03-21T10:03:24.434Z,9.27
2023-03-21T10:05:57.311Z,8.13
2023-03-21T10:08:32.171Z,8.25
2023-03-21T10:11:08.279Z,9.35
2023-03-21T10:13:50.411Z,8.27
2023-03-21T10:16:28.315Z,8.30
2023-03-21T10:19:00.594Z,10.75
2023-03-21T10:21:56.926Z,8.93
2023-03-21T10:24:25.631Z,9.13
2023-03-21T10:26:56.993Z,9.88
2023-03-21T10:29:33.841Z,10.63
2023-03-21T10:32:03.932Z,9.32
2023-03-21T10:34:39.189Z,8.07
2023-03-21T10:37:09.135Z,9.77
2023-03-21T10:39:41.974Z,8.20
2023-03-21T10:42:21.580Z,7.85
2023-03-21T10:44:54.984Z,7.72
2023-03-21T10:47:27.798Z,7.97
2023-03-21T10:50:10.683Z,7.72
2023-03-21T10:52:47.701Z,7.15
2023-03-21T10:55:28.811Z,9.45
2023-03-21T10:58:03.765Z,7.13
2023-03-21T11:00:41.496Z,7.00
2023-03-21T11:03:24.148Z,7.93
2023-03-21T11:05:57.807Z,7.10
2023-03-21T11:08:27.412Z,8.98
2023-03-21T11:11:03.644Z,9.75
2023-03-21T11:13:39.841Z,9.07
2023-03-21T11:16:19.468Z,8.05
2023-03-21T11:18:53.032Z,7.72
2023-03-21T11:21:29.754Z,6.90
2023-03-21T11:23:59.142Z,4.60
2023-03-21T11:26:32.645Z,5.32
2023-03-21T11:29:08.158Z,5.22
2023-03-21T11:31:43.359Z,5.30
2023-03-21T11:34:29.229Z,4.88
2023-03-21T11:37:02.761Z,4.93
2023-03-21T11:39:40.379Z,6.05
2023-03-21T11:42:31.930Z,4.60
2023-03-21T11:45:14.977Z,6.95
2023-03-21T11:47:46.648Z,6.07
2023-03-21T11:50:28.210Z,5.93
2023-03-21T11:53:27.186Z,5.90
2023-03-21T11:56:11.810Z,6.00
2023-03-21T11:59:04.030Z,6.80
2023-03-21T12:01:49.627Z,5.80
2023-03-21T12:04:42.319Z,6.93
2023-03-21T12:07:31.924Z,6.68
2023-03-21T12:10:27.357Z,6.30
2023-03-21T12:13:11.529Z,7.10
2023-03-21T12:15:55.044Z,7.65
2023-03-21T12:18:50.389Z,6.50
2023-03-21T12:21:31.321Z,5.90
2023-03-21T12:24:12.950Z,6.28
2023-03-21T12:26:55.650Z,4.88
2023-03-21T12:29:43.713Z,4.90
2023-03-21T12:32:27.405Z,5.78
2023-03-21T12:35:22.599Z,5.68
2023-03-21T12:38:10.445Z,5.63
2023-03-21T12:41:02.762Z,4.38
2023-03-21T12:43:47.637Z,7.65
2023-03-21T12:46:25.496Z,6.90
2023-03-21T12:49:00.340Z,4.88
2023-03-21T12:51:34.444Z,6.72
2023-03-21T12:54:16.511Z,5.53
2023-03-21T12:56:55.734Z,5.50
2023-03-21T12:59:36.323Z,7.18
2023-03-21T13:02:21.347Z,4.75
2023-03-21T13:05:04.694Z,6.45
2023-03-21T13:07:39.836Z,5.05
2023-03-21T13:10:20.902Z,4.80
2023-03-21T13:13:09.893Z,5.88
2023-03-21T13:15:53.730Z,4.13
2023-03-21T13:18:39.816Z,6.93
2023-03-21T13:21:17.746Z,6.18
2023-03-21T13:24:02.034Z,5.25
2023-03-21T13:26:40.825Z,7.82
2023-03-21T13:29:24.932Z,7.63
2023-03-21T13:31:57.642Z,8.63
2023-03-21T13:34:27.863Z,5.97
2023-03-21T13:36:58.615Z,5.60
2023-03-21T13:39:31.151Z,6.47
2023-03-21T13:42:07.189Z,6.07
2023-03-21T13:44:50.004Z,4.45
2023-03-21T13:47:36.961Z,4.35
2023-03-21T13:50:31.456Z,4.10
2023-03-21T13:53:24.486Z,4.25
2023-03-21T13:56:21.967Z,4.75
2023-03-21T13:59:03.458Z,4.03
2023-03-21T14:01:39.586Z,4.13
2023-03-21T14:04:16.690Z,4.18
2023-03-21T14:06:52.130Z,4.03
2023-03-21T14:09:30.664Z,4.45
2023-03-21T14:12:07.578Z,3.95
2023-03-21T14:14:43.598Z,3.13
2023-03-21T14:17:16.451Z,4.00
2023-03-21T14:19:45.746Z,3.40
2023-03-21T14:22:15.756Z,3.75
2023-03-21T14:24:50.890Z,3.53
2023-03-21T14:27:21.461Z,3.35
2023-03-21T14:29:53.483Z,3.72
2023-03-21T14:32:27.304Z,4.43
2023-03-21T14:34:57.816Z,4.07
2023-03-21T14:37:39.892Z,5.03
2023-03-21T14:40:23.653Z,4.38
2023-03-21T14:42:54.163Z,4.82
2023-03-21T14:45:28.098Z,4.35
2023-03-21T14:48:00.633Z,6.90
2023-03-21T14:50:41.904Z,4.43
2023-03-21T14:53:17.980Z,5.95
2023-03-21T14:55:51.855Z,6.45
2023-03-21T14:58:20.866Z,7.97
2023-03-21T15:00:53.954Z,5.60
2023-03-21T15:03:26.966Z,4.15
2023-03-21T15:05:57.052Z,6.13
2023-03-21T15:08:28.397Z,5.80
2023-03-21T15:11:08.409Z,5.07
2023-03-21T15:13:50.131Z,5.38
2023-03-21T15:16:22.344Z,4.50
2023-03-21T15:18:53.514Z,4.00
2023-03-21T15:21:28.790Z,4.05
2023-03-21T15:24:05.554Z,4.55
2023-03-21T15:26:35.159Z,3.95
2023-03-21T15:29:04.590Z,6.10
2023-03-21T15:31:40.825Z,5.55
2023-03-21T15:34:21.989Z,6.00
2023-03-21T15:36:57.602Z,5.45
2023-03-21T15:39:30.361Z,5.10
2023-03-21T15:42:03.869Z,6.38
2023-03-21T15:44:35.836Z,5.10
2023-03-21T15:47:06.503Z,5.22
2023-03-21T15:49:41.755Z,5.28
2023-03-21T15:52:16.991Z,7.72
2023-03-21T15:54:50.274Z,5.82
2023-03-21T15:57:25.045Z,7.15
2023-03-21T16:00:00.525Z,7.80
2023-03-21T16:02:32.460Z,7.05
2023-03-21T16:05:04.428Z,5.72
2023-03-21T16:07:36.229Z,7.05
2023-03-21T16:10:05.987Z,7.20
2023-03-21T16:12:35.443Z,7.18
2023-03-21T16:15:05.173Z,6.00
2023-03-21T16:17:38.164Z,7.15
2023-03-21T16:20:20.265Z,7.85
2023-03-21T16:22:50.009Z,8.15
2023-03-21T16:25:19.703Z,7.75
2023-03-21T16:27:49.836Z,7.00
2023-03-21T16:30:22.553Z,8.32
2023-03-21T16:32:53.374Z,7.00
2023-03-21T16:35:23.671Z,8.30
2023-03-21T16:37:52.919Z,6.15
2023-03-21T16:40:30.806Z,7.05
2023-03-21T16:43:00.180Z,7.20
2023-03-21T16:45:30.579Z,7.18
2023-03-21T16:48:01.860Z,6.20
2023-03-21T16:50:34.764Z,8.52
2023-03-21T16:53:04.128Z,8.88
2023-03-21T16:55:34.867Z,7.10
2023-03-21T16:58:04.683Z,9.45
2023-03-21T17:00:33.936Z,8.57
2023-03-21T17:03:18.224Z,9.18
2023-03-21T17:05:47.231Z,7.78
2023-03-21T17:08:18.688Z,8.80
2023-03-21T17:10:48.083Z,8.50
2023-03-21T17:13:17.260Z,8.00
2023-03-21T17:15:46.058Z,9.35
2023-03-21T17:18:16.595Z,8.38
2023-03-21T17:20:45.574Z,7.85
2023-03-21T17:23:14.882Z,7.78
2023-03-21T17:25:43.696Z,14.05
2023-03-21T17:28:12.802Z,8.55
2023-03-21T17:30:41.874Z,9.55
2023-03-21T17:33:11.105Z,10.18
2023-03-21T17:35:41.432Z,11.32
2023-03-21T17:38:17.624Z,11.52
2023-03-21T17:40:46.486Z,11.35
2023-03-21T17:43:20.401Z,12.05
2023-03-21T17:45:49.389Z,10.32
2023-03-21T17:48:18.543Z,9.80
2023-03-21T17:50:48.746Z,16.30
2023-03-21T17:53:17.896Z,12.60
2023-03-21T17:55:46.753Z,13.98
2023-03-21T17:58:17.773Z,12.48
2023-03-21T18:00:47.131Z,12.98
2023-03-21T18:03:18.454Z,15.07
2023-03-21T18:05:49.607Z,17.33
2023-03-21T18:08:18.732Z,16.45
2023-03-21T18:10:47.712Z,19.83
2023-03-21T18:13:17.141Z,13.88
2023-03-21T18:15:48.350Z,18.50
2023-03-21T18:18:17.880Z,15.05
2023-03-21T18:20:53.637Z,18.02
2023-03-21T18:23:23.618Z,16.15
2023-03-21T18:25:53.782Z,18.55
2023-03-21T18:28:23.836Z,21.77
2023-03-21T18:31:08.259Z,25.83
2023-03-21T18:33:41.281Z,26.17
2023-03-21T18:36:14.614Z,26.10
2023-03-21T18:38:44.609Z,23.02
2023-03-21T18:41:15.082Z,28.70
2023-03-21T18:44:02.826Z,31.77
2023-03-21T18:46:33.527Z,34.42
2023-03-21T18:49:33.492Z,30.75
2023-03-21T18:51:53.393Z,31.13
2023-03-21T18:54:23.543Z,29.67
2023-03-21T18:59:41.529Z,33.45
2023-03-21T19:02:13.794Z,33.63
2023-03-21T19:04:43.747Z,42.17
2023-03-21T19:07:13.955Z,39.92
2023-03-21T19:10:05.853Z,37.10
2023-03-21T19:12:32.384Z,34.40
2023-03-21T19:15:01.519Z,36.03
2023-03-21T19:20:19.684Z,34.70
2023-03-21T19:22:49.834Z,32.72
2023-03-21T19:25:19.255Z,34.40
2023-03-21T19:27:48.041Z,32.67
2023-03-21T19:30:17.531Z,39.05
2023-03-21T19:32:46.664Z,41.28
2023-03-21T19:35:15.778Z,45.60
2023-03-21T19:37:44.571Z,42.78
2023-03-21T19:40:15.680Z,42.45
2023-03-21T19:42:44.595Z,43.72
2023-03-21T19:45:13.950Z,40.40
2023-03-21T19:47:42.803Z,37.67
2023-03-21T19:50:49.315Z,41.13
2023-03-21T19:53:01.464Z,39.40
2023-03-21T19:55:32.173Z,40.95
2023-03-21T19:58:01.490Z,43.85
2023-03-21T20:00:30.924Z,43.05
2023-03-21T20:02:59.871Z,39.50
2023-03-21T20:05:29.401Z,40.22
2023-03-21T20:07:58.296Z,38.95
2023-03-21T20:10:27.798Z,34.92
2023-03-21T20:12:58.482Z,42.47
2023-03-21T20:15:29.978Z,38.33
2023-03-21T20:17:59.760Z,43.45
2023-03-21T20:20:30.415Z,47.55
2023-03-21T20:23:06.726Z,48.80
2023-03-21T20:25:40.414Z,55.65
2023-03-21T20:28:17.312Z,49.58
2023-03-21T20:30:57.026Z,51.15
2023-03-21T20:33:26.543Z,53.22
2023-03-21T20:38:52.165Z,49.22
2023-03-21T20:41:21.389Z,46.88
2023-03-21T20:44:39.072Z,48.47
2023-03-21T20:46:41.741Z,45.10
2023-03-21T20:49:10.816Z,47.72
2023-03-21T20:54:28.695Z,48.03
2023-03-21T20:56:57.796Z,46.33
2023-03-21T20:59:29.263Z,49.05
2023-03-21T21:01:59.179Z,48.75
2023-03-21T21:04:48.270Z,48.30
2023-03-21T21:07:22.574Z,47.42
2023-03-21T21:09:51.693Z,50.50
2023-03-21T21:12:27.392Z,47.80
2023-03-21T21:14:57.836Z,43.92
2023-03-21T21:17:57.968Z,51.58
2023-03-21T21:20:17.693Z,42.78
2023-03-21T21:22:58.905Z,46.05
2023-03-21T21:25:30.728Z,45.15
2023-03-21T21:28:01.661Z,49.35
2023-03-21T21:30:33.723Z,42.47
2023-03-21T21:33:02.820Z,47.00
2023-03-21T21:35:33.533Z,56.70
2023-03-21T21:38:02.698Z,44.05
2023-03-21T21:40:31.485Z,42.53
2023-03-21T21:43:03.574Z,39.92
2023-03-21T21:45:33.926Z,42.75
2023-03-21T21:48:03.087Z,45.58
2023-03-21T21:50:31.873Z,47.22
2023-03-21T21:53:03.909Z,42.67
2023-03-21T21:55:33.848Z,45.38
2023-03-21T21:58:04.031Z,41.85
2023-03-21T22:00:34.546Z,46.53
2023-03-21T22:03:03.832Z,42.45
2023-03-21T22:05:33.111Z,43.80
2023-03-21T22:08:02.211Z,48.70
2023-03-21T22:10:33.561Z,44.47
2023-03-21T22:13:02.639Z,45.72
2023-03-21T22:15:33.366Z,43.45
2023-03-21T22:18:02.558Z,45.35
2023-03-21T22:20:31.463Z,44.17
2023-03-21T22:23:01.003Z,41.83
2023-03-21T22:25:33.112Z,41.53
2023-03-21T22:28:02.448Z,40.35
2023-03-21T22:30:33.090Z,43.97
2023-03-21T22:33:09.569Z,45.85
2023-03-21T22:35:39.150Z,47.10
2023-03-21T22:38:08.262Z,53.38
2023-03-21T22:40:37.514Z,57.15
2023-03-21T22:43:08.392Z,55.20
2023-03-21T22:45:38.645Z,59.17
2023-03-21T22:48:07.810Z,57.92
2023-03-21T22:50:36.646Z,56.45
2023-03-21T22:53:05.843Z,55.08
2023-03-21T22:55:34.668Z,60.13
2023-03-21T22:58:04.414Z,58.13
2023-03-21T23:00:33.585Z,53.03
2023-03-21T23:03:04.313Z,60.15
2023-03-21T23:05:33.515Z,57.75
2023-03-21T23:08:02.809Z,51.55
2023-03-21T23:10:31.570Z,55.50
2023-03-21T23:13:00.732Z,51.08
2023-03-21T23:15:29.559Z,55.72
2023-03-21T23:17:58.930Z,52.28
2023-03-21T23:20:29.410Z,54.40
2023-03-21T23:22:58.660Z,49.30
2023-03-21T23:25:29.022Z,49.67
2023-03-21T23:27:58.209Z,49.28
2023-03-21T23:30:27.480Z,51.47
2023-03-21T23:32:57.368Z,49.10
2023-03-21T23:35:26.277Z,47.65
2023-03-21T23:37:56.707Z,49.45
2023-03-21T23:40:25.522Z,47.80
2023-03-21T23:42:54.599Z,49.90
2023-03-21T23:45:23.625Z,52.85
2023-03-21T23:47:52.724Z,47.28
2023-03-21T23:50:21.549Z,46.97
2023-03-21T23:52:50.659Z,45.75
2023-03-21T23:55:20.966Z,47.63
2023-03-21T23:57:58.905Z,46.70
